AirNav   Air Wisconsin Up To $57,000 Bonus
 
 1111 users online  

0NC1 H & J Strip Airport
Elon, North Carolina, USA

GOING TO ELON?


FAA INFORMATION EFFECTIVE 01 DECEMBER 2022

Location

FAA Identifier: 0NC1
Lat/Long: 36-15-29.2200N 079-29-08.6800W
36-15.487000N 079-29.144667W
36.2581167,-79.4857444
(estimated)
Elevation: 686 ft. / 209 m (estimated)
From city: 10 miles N of ELON, NC
Time zone: UTC -5 (UTC -4 during Daylight Saving Time)
Zip code: 27244

Airport Operations

Airport use: Private use. Permission required prior to landing
Activation date: 01/2014
Control tower: no
ARTCC: ATLANTA CENTER
FSS: RALEIGH FLIGHT SERVICE STATION
Attendance: IREG
Wind indicator: yes
Segmented circle: no

Airport Communications

WX ASOS at BUY (13 nm S): 135.325 (336-570-9813)

Nearby radio navigation aids

VOR radial/distance  VOR name  Freq  Var
DANr207/(20.0)DANVILLE VOR113.1006W
GSOr065/27.0GREENSBORO VORTAC116.2003W
LIBr016/27.5LIBERTY VORTAC113.0003W
SBVr227/33.8SOUTH BOSTON VORTAC110.4005W

 
NDB name  Hdg/Dist  Freq  Var  ID
SLAMMER126/15.342307WSIF ... .. ..-.
PERSON282/20.422008WHUR .... ..- .-.

Airport Services

Runway Information

Runway 1/19

Dimensions: 2000 x 200 ft. / 610 x 61 m
Surface: turf
RUNWAY 1  RUNWAY 19
Traffic pattern: leftleft
Obstructions: 50 ft. trees, 600 ft. from runway30 ft. plines, 100 ft. from runway

Airport Ownership and Management from official FAA records

Ownership: Privately-owned
Owner: JAMES D. HUMPHREY
7528 KERR CHAPEL RD
ELON, NC 27244
Phone 336-214-2121
Manager: JAMES D. HUMPHREY
7528 KERR CHAPEL RD
ELON, NC 27244
Phone 336-214-2121

Airport Operational Statistics

Aircraft based on the field: 1
Single engine airplanes: 1
    

Additional Remarks

FOR CD CTC ATLANTA ARTCC AT 770-210-7692.

Instrument Procedures

There are no published instrument procedures at 0NC1.

Some nearby airports with instrument procedures:

KBUY - Burlington/Alamance Regional Airport (13 nm S)
KDAN - Danville Regional Airport (20 nm N)
KSIF - Rockingham County NC Shiloh Airport (21 nm NW)
2A5 - Causey Airport (22 nm S)
KGSO - Piedmont Triad International Airport (24 nm SW)
 
Loc | Ops | Rwys | IFR | FBO | Links
Com | Nav | Svcs | Stats | Notes
Aerial photo
No photo
 
Airport distance calculator
Flying to H & J Strip Airport? Find the distance to fly.

From to 0NC1

Sunrise and sunset
Times for 06-Dec-2022
 Local
(UTC-5)
 Zulu
(UTC)
Morning civil twilight06:4811:48
Sunrise07:1612:16
Sunset17:0222:02
Evening civil twilight17:3022:30

Current date and time
Zulu (UTC)  07-Dec-2022 02:41:51
Local (UTC-5)  06-Dec-2022 21:41:51
 
METAR
KBUY 
13nm S 
070154Z AUTO 00000KT 1 3/4SM BR OVC004 10/09 A3024 RMK AO2 RAE19B28E44 SLP240 P0001 T01000094
KDAN 
20nm N 
070213Z AUTO 00000KT 2 1/2SM BR OVC003 08/08 A3025 RMK AO2 T00830078 $
KSIF 
21nm NW 
070215Z AUTO 24003KT 5SM +RA OVC005 07/07 A3025 RMK AO2 P0003 T00650065
KTDF 
24nm E 
070215Z AUTO 00000KT 7SM OVC004 08/08 A3026 RMK AO2
KGSO 
24nm SW 
070154Z 26004KT 1/4SM R05R/2800V4000FT FG VV002 09/09 A3023 RMK AO2 SFC VIS 1/2 RAE0058 SLP238 P0000 T00940089
TAF
KDAN 
20nm N 
062205Z 0622/0718 00000KT 2SM -RA BR SCT003 OVC010 FM070300 22003KT 1 1/2SM -DZ BR OVC003 FM070800 20003KT 4SM BR OVC007 FM071500 23005KT 5SM -SHRA BR OVC015
KGSO 
24nm SW 
061728Z 0618/0718 00000KT 1SM -DZ BR OVC003 FM062200 VRB02KT 1 1/2SM BR OVC003 FM070400 VRB02KT 1/2SM FG OVC002
NOTAMs
Click for the latest NOTAMs
NOTAMs are issued by the DoD/FAA and will open in a separate window not controlled by AirNav.

 

 
 

Would you like to see your business listed on this page?

 If your business provides an interesting product or service to pilots, flight crews, aircraft, or users of the H & J Strip Airport, you should consider listing it here.  To start the listing process, click on the button below
 
Add a business
 

Other Pages about H & J Strip Airport

Update a link
 
Copyright © AirNav, LLC. All rights reserved. Privacy Policy  Contact